sensor_id;sensor_type;location;lat;lon;timestamp;temperature;humidity
60313;DHT22;46158;52.850;6.970;2023-04-24T00:00:23;15.60;70.70
60313;DHT22;46158;52.850;6.970;2023-04-24T00:02:49;15.60;70.60
60313;DHT22;46158;52.850;6.970;2023-04-24T00:05:16;15.70;70.70
60313;DHT22;46158;52.850;6.970;2023-04-24T00:07:43;15.60;70.70
60313;DHT22;46158;52.850;6.970;2023-04-24T00:10:10;15.60;70.60
60313;DHT22;46158;52.850;6.970;2023-04-24T00:12:36;15.60;70.60
60313;DHT22;46158;52.850;6.970;2023-04-24T00:15:02;15.60;70.60
60313;DHT22;46158;52.850;6.970;2023-04-24T00:17:28;15.60;70.60
60313;DHT22;46158;52.850;6.970;2023-04-24T00:19:53;15.60;70.60
60313;DHT22;46158;52.850;6.970;2023-04-24T00:22:27;15.60;70.60
60313;DHT22;46158;52.850;6.970;2023-04-24T00:24:53;15.60;70.60
60313;DHT22;46158;52.850;6.970;2023-04-24T00:27:19;15.60;70.70
60313;DHT22;46158;52.850;6.970;2023-04-24T00:29:44;15.60;70.60
60313;DHT22;46158;52.850;6.970;2023-04-24T00:32:10;15.60;70.60
60313;DHT22;46158;52.850;6.970;2023-04-24T00:34:36;15.60;70.60
60313;DHT22;46158;52.850;6.970;2023-04-24T00:37:02;15.60;70.60
60313;DHT22;46158;52.850;6.970;2023-04-24T00:39:27;15.60;70.60
60313;DHT22;46158;52.850;6.970;2023-04-24T00:41:53;15.60;70.60
60313;DHT22;46158;52.850;6.970;2023-04-24T00:44:19;15.50;70.60
60313;DHT22;46158;52.850;6.970;2023-04-24T00:46:46;15.50;70.60
60313;DHT22;46158;52.850;6.970;2023-04-24T00:49:13;15.60;70.60
60313;DHT22;46158;52.850;6.970;2023-04-24T00:51:39;15.50;70.50
60313;DHT22;46158;52.850;6.970;2023-04-24T00:54:06;15.50;70.60
60313;DHT22;46158;52.850;6.970;2023-04-24T00:56:31;15.50;70.60
60313;DHT22;46158;52.850;6.970;2023-04-24T00:58:57;15.50;70.60
60313;DHT22;46158;52.850;6.970;2023-04-24T01:01:24;15.50;70.60
60313;DHT22;46158;52.850;6.970;2023-04-24T01:03:51;15.50;70.60
60313;DHT22;46158;52.850;6.970;2023-04-24T01:06:17;15.50;70.50
60313;DHT22;46158;52.850;6.970;2023-04-24T01:08:43;15.50;70.60
60313;DHT22;46158;52.850;6.970;2023-04-24T01:11:10;15.50;70.60
60313;DHT22;46158;52.850;6.970;2023-04-24T01:13:35;15.50;70.50
60313;DHT22;46158;52.850;6.970;2023-04-24T01:16:01;15.50;70.60
60313;DHT22;46158;52.850;6.970;2023-04-24T01:18:27;15.50;70.60
60313;DHT22;46158;52.850;6.970;2023-04-24T01:20:58;15.40;70.50
60313;DHT22;46158;52.850;6.970;2023-04-24T01:23:24;15.50;70.60
60313;DHT22;46158;52.850;6.970;2023-04-24T01:25:50;15.40;70.60
60313;DHT22;46158;52.850;6.970;2023-04-24T01:28:16;15.50;70.60
60313;DHT22;46158;52.850;6.970;2023-04-24T01:30:42;15.40;70.60
60313;DHT22;46158;52.850;6.970;2023-04-24T01:33:08;15.40;70.50
60313;DHT22;46158;52.850;6.970;2023-04-24T01:35:34;15.40;70.50
60313;DHT22;46158;52.850;6.970;2023-04-24T01:38:01;15.40;70.60
60313;DHT22;46158;52.850;6.970;2023-04-24T01:40:27;15.40;70.50
60313;DHT22;46158;52.850;6.970;2023-04-24T01:42:53;15.40;70.60
60313;DHT22;46158;52.850;6.970;2023-04-24T01:45:19;15.40;70.60
60313;DHT22;46158;52.850;6.970;2023-04-24T01:47:45;15.40;70.60
60313;DHT22;46158;52.850;6.970;2023-04-24T01:50:11;15.40;70.60
60313;DHT22;46158;52.850;6.970;2023-04-24T01:52:37;15.40;70.60
60313;DHT22;46158;52.850;6.970;2023-04-24T01:55:03;15.40;70.60
60313;DHT22;46158;52.850;6.970;2023-04-24T01:57:30;15.40;70.60
60313;DHT22;46158;52.850;6.970;2023-04-24T01:59:56;15.30;70.60
60313;DHT22;46158;52.850;6.970;2023-04-24T02:02:23;15.30;70.50
60313;DHT22;46158;52.850;6.970;2023-04-24T02:04:55;15.30;70.50
60313;DHT22;46158;52.850;6.970;2023-04-24T02:07:21;15.30;70.50
60313;DHT22;46158;52.850;6.970;2023-04-24T02:09:47;15.30;70.60
60313;DHT22;46158;52.850;6.970;2023-04-24T02:12:17;15.30;70.60
60313;DHT22;46158;52.850;6.970;2023-04-24T02:14:43;15.30;70.60
60313;DHT22;46158;52.850;6.970;2023-04-24T02:17:09;15.30;70.60
60313;DHT22;46158;52.850;6.970;2023-04-24T02:19:35;15.30;70.60
60313;DHT22;46158;52.850;6.970;2023-04-24T02:22:00;15.30;70.60
60313;DHT22;46158;52.850;6.970;2023-04-24T02:24:26;15.30;70.60
60313;DHT22;46158;52.850;6.970;2023-04-24T02:26:52;15.30;70.60
60313;DHT22;46158;52.850;6.970;2023-04-24T02:29:17;15.30;70.60
60313;DHT22;46158;52.850;6.970;2023-04-24T02:31:43;15.30;70.60
60313;DHT22;46158;52.850;6.970;2023-04-24T02:34:09;15.20;70.50
60313;DHT22;46158;52.850;6.970;2023-04-24T02:36:34;15.30;70.60
60313;DHT22;46158;52.850;6.970;2023-04-24T02:39:00;15.30;70.70
60313;DHT22;46158;52.850;6.970;2023-04-24T02:41:27;15.20;70.60
60313;DHT22;46158;52.850;6.970;2023-04-24T02:44:00;15.30;70.70
60313;DHT22;46158;52.850;6.970;2023-04-24T02:46:25;15.30;70.60
60313;DHT22;46158;52.850;6.970;2023-04-24T02:48:51;15.20;70.60
60313;DHT22;46158;52.850;6.970;2023-04-24T02:51:17;15.20;70.60
60313;DHT22;46158;52.850;6.970;2023-04-24T02:53:43;15.20;70.60
60313;DHT22;46158;52.850;6.970;2023-04-24T02:56:08;15.20;70.70
60313;DHT22;46158;52.850;6.970;2023-04-24T02:58:34;15.20;70.60
60313;DHT22;46158;52.850;6.970;2023-04-24T03:01:01;15.20;70.60
60313;DHT22;46158;52.850;6.970;2023-04-24T03:03:26;15.20;70.70
60313;DHT22;46158;52.850;6.970;2023-04-24T03:05:52;15.20;70.60
60313;DHT22;46158;52.850;6.970;2023-04-24T03:08:18;15.20;70.70
60313;DHT22;46158;52.850;6.970;2023-04-24T03:10:44;15.20;71.40
60313;DHT22;46158;52.850;6.970;2023-04-24T03:13:09;15.10;70.70
60313;DHT22;46158;52.850;6.970;2023-04-24T03:15:35;15.20;70.70
60313;DHT22;46158;52.850;6.970;2023-04-24T03:18:00;15.20;70.70
60313;DHT22;46158;52.850;6.970;2023-04-24T03:20:28;15.10;70.60
60313;DHT22;46158;52.850;6.970;2023-04-24T03:22:53;15.10;71.30
60313;DHT22;46158;52.850;6.970;2023-04-24T03:25:19;15.10;70.60
60313;DHT22;46158;52.850;6.970;2023-04-24T03:27:45;15.10;70.60
60313;DHT22;46158;52.850;6.970;2023-04-24T03:30:10;15.10;70.60
60313;DHT22;46158;52.850;6.970;2023-04-24T03:32:36;15.10;70.60
60313;DHT22;46158;52.850;6.970;2023-04-24T03:35:02;15.10;70.70
60313;DHT22;46158;52.850;6.970;2023-04-24T03:37:28;15.10;70.70
60313;DHT22;46158;52.850;6.970;2023-04-24T03:39:54;15.10;70.70
60313;DHT22;46158;52.850;6.970;2023-04-24T03:42:20;15.10;70.70
60313;DHT22;46158;52.850;6.970;2023-04-24T03:44:45;15.10;70.70
60313;DHT22;46158;52.850;6.970;2023-04-24T03:47:11;15.10;70.70
60313;DHT22;46158;52.850;6.970;2023-04-24T03:49:37;15.10;70.70
60313;DHT22;46158;52.850;6.970;2023-04-24T03:52:05;15.10;70.70
60313;DHT22;46158;52.850;6.970;2023-04-24T03:54:31;15.00;70.60
60313;DHT22;46158;52.850;6.970;2023-04-24T03:56:57;15.00;70.60
60313;DHT22;46158;52.850;6.970;2023-04-24T03:59:22;15.00;70.60
60313;DHT22;46158;52.850;6.970;2023-04-24T04:01:48;15.00;70.60
60313;DHT22;46158;52.850;6.970;2023-04-24T04:04:13;15.00;70.60
60313;DHT22;46158;52.850;6.970;2023-04-24T04:06:39;15.00;70.60
60313;DHT22;46158;52.850;6.970;2023-04-24T04:09:05;15.00;70.60
60313;DHT22;46158;52.850;6.970;2023-04-24T04:11:32;15.00;70.70
60313;DHT22;46158;52.850;6.970;2023-04-24T04:13:58;15.00;70.60
60313;DHT22;46158;52.850;6.970;2023-04-24T04:16:24;15.00;70.60
60313;DHT22;46158;52.850;6.970;2023-04-24T04:18:50;15.00;70.60
60313;DHT22;46158;52.850;6.970;2023-04-24T04:21:15;15.00;70.60
60313;DHT22;46158;52.850;6.970;2023-04-24T04:23:41;15.00;70.60
60313;DHT22;46158;52.850;6.970;2023-04-24T04:26:07;15.00;70.60
60313;DHT22;46158;52.850;6.970;2023-04-24T04:28:33;15.00;70.70
60313;DHT22;46158;52.850;6.970;2023-04-24T04:30:59;14.90;70.60
60313;DHT22;46158;52.850;6.970;2023-04-24T04:33:25;14.90;70.60
60313;DHT22;46158;52.850;6.970;2023-04-24T04:35:51;15.00;70.70
60313;DHT22;46158;52.850;6.970;2023-04-24T04:38:22;14.90;70.60
60313;DHT22;46158;52.850;6.970;2023-04-24T04:40:48;14.90;70.60
60313;DHT22;46158;52.850;6.970;2023-04-24T04:43:14;14.90;70.60
60313;DHT22;46158;52.850;6.970;2023-04-24T04:45:41;14.90;70.70
60313;DHT22;46158;52.850;6.970;2023-04-24T04:48:09;14.90;70.70
60313;DHT22;46158;52.850;6.970;2023-04-24T04:50:37;14.90;70.60
60313;DHT22;46158;52.850;6.970;2023-04-24T04:53:03;14.90;70.60
60313;DHT22;46158;52.850;6.970;2023-04-24T04:55:29;14.90;70.60
60313;DHT22;46158;52.850;6.970;2023-04-24T04:57:54;14.90;70.70
60313;DHT22;46158;52.850;6.970;2023-04-24T05:00:21;14.90;70.70
60313;DHT22;46158;52.850;6.970;2023-04-24T05:02:48;14.90;70.60
60313;DHT22;46158;52.850;6.970;2023-04-24T05:05:14;14.90;70.70
60313;DHT22;46158;52.850;6.970;2023-04-24T05:07:42;14.90;70.70
60313;DHT22;46158;52.850;6.970;2023-04-24T05:10:08;14.90;70.70
60313;DHT22;46158;52.850;6.970;2023-04-24T05:12:34;14.90;70.70
60313;DHT22;46158;52.850;6.970;2023-04-24T05:15:00;14.90;70.70
60313;DHT22;46158;52.850;6.970;2023-04-24T05:17:26;14.80;70.60
60313;DHT22;46158;52.850;6.970;2023-04-24T05:19:51;14.90;70.70
60313;DHT22;46158;52.850;6.970;2023-04-24T05:22:17;14.80;70.60
60313;DHT22;46158;52.850;6.970;2023-04-24T05:24:46;14.80;70.70
60313;DHT22;46158;52.850;6.970;2023-04-24T05:27:12;14.80;70.70
60313;DHT22;46158;52.850;6.970;2023-04-24T05:29:38;14.80;70.70
60313;DHT22;46158;52.850;6.970;2023-04-24T05:32:04;14.80;70.70
60313;DHT22;46158;52.850;6.970;2023-04-24T05:34:30;14.80;70.70
60313;DHT22;46158;52.850;6.970;2023-04-24T05:36:55;14.80;70.70
60313;DHT22;46158;52.850;6.970;2023-04-24T05:39:21;14.80;70.70
60313;DHT22;46158;52.850;6.970;2023-04-24T05:41:47;14.80;70.70
60313;DHT22;46158;52.850;6.970;2023-04-24T05:44:13;14.80;70.70
60313;DHT22;46158;52.850;6.970;2023-04-24T05:46:38;14.80;70.70
60313;DHT22;46158;52.850;6.970;2023-04-24T05:49:04;14.80;70.70
60313;DHT22;46158;52.850;6.970;2023-04-24T05:51:30;14.70;70.60
60313;DHT22;46158;52.850;6.970;2023-04-24T05:53:57;14.80;70.70
60313;DHT22;46158;52.850;6.970;2023-04-24T05:56:26;14.70;70.70
60313;DHT22;46158;52.850;6.970;2023-04-24T05:58:52;14.70;70.70
60313;DHT22;46158;52.850;6.970;2023-04-24T06:01:18;14.70;70.70
60313;DHT22;46158;52.850;6.970;2023-04-24T06:03:45;14.70;70.70
60313;DHT22;46158;52.850;6.970;2023-04-24T06:06:10;14.70;70.70
60313;DHT22;46158;52.850;6.970;2023-04-24T06:08:36;14.70;70.70
60313;DHT22;46158;52.850;6.970;2023-04-24T06:11:02;14.70;70.70
60313;DHT22;46158;52.850;6.970;2023-04-24T06:13:27;14.70;70.70
60313;DHT22;46158;52.850;6.970;2023-04-24T06:15:53;14.70;70.70
60313;DHT22;46158;52.850;6.970;2023-04-24T06:18:19;14.70;70.80
60313;DHT22;46158;52.850;6.970;2023-04-24T06:20:46;14.70;70.70
60313;DHT22;46158;52.850;6.970;2023-04-24T06:23:12;14.70;70.80
60313;DHT22;46158;52.850;6.970;2023-04-24T06:25:38;14.70;70.80
60313;DHT22;46158;52.850;6.970;2023-04-24T06:28:03;14.70;70.80
60313;DHT22;46158;52.850;6.970;2023-04-24T06:30:29;14.70;70.80
60313;DHT22;46158;52.850;6.970;2023-04-24T06:32:55;14.70;70.80
60313;DHT22;46158;52.850;6.970;2023-04-24T06:35:21;14.70;70.80
60313;DHT22;46158;52.850;6.970;2023-04-24T06:37:46;14.60;70.80
60313;DHT22;46158;52.850;6.970;2023-04-24T06:40:12;14.60;71.40
60313;DHT22;46158;52.850;6.970;2023-04-24T06:42:38;14.60;70.80
60313;DHT22;46158;52.850;6.970;2023-04-24T06:45:04;14.60;70.80
60313;DHT22;46158;52.850;6.970;2023-04-24T06:47:30;14.60;70.80
60313;DHT22;46158;52.850;6.970;2023-04-24T06:49:56;14.60;70.80
60313;DHT22;46158;52.850;6.970;2023-04-24T06:52:22;14.60;70.80
60313;DHT22;46158;52.850;6.970;2023-04-24T06:54:48;14.60;70.80
60313;DHT22;46158;52.850;6.970;2023-04-24T06:57:14;14.60;70.80
60313;DHT22;46158;52.850;6.970;2023-04-24T06:59:41;14.60;70.80
60313;DHT22;46158;52.850;6.970;2023-04-24T07:02:07;14.60;70.90
60313;DHT22;46158;52.850;6.970;2023-04-24T07:04:33;14.60;70.80
60313;DHT22;46158;52.850;6.970;2023-04-24T07:06:58;14.60;70.90
60313;DHT22;46158;52.850;6.970;2023-04-24T07:09:26;14.60;70.90
60313;DHT22;46158;52.850;6.970;2023-04-24T07:11:52;14.50;70.80
60313;DHT22;46158;52.850;6.970;2023-04-24T07:14:19;14.60;70.90
60313;DHT22;46158;52.850;6.970;2023-04-24T07:16:45;14.60;70.90
60313;DHT22;46158;52.850;6.970;2023-04-24T07:19:11;14.60;70.90
60313;DHT22;46158;52.850;6.970;2023-04-24T07:21:37;14.60;70.90
60313;DHT22;46158;52.850;6.970;2023-04-24T07:24:03;14.50;70.90
60313;DHT22;46158;52.850;6.970;2023-04-24T07:26:30;14.50;70.80
60313;DHT22;46158;52.850;6.970;2023-04-24T07:28:56;14.50;70.90
60313;DHT22;46158;52.850;6.970;2023-04-24T07:31:22;14.50;70.90
60313;DHT22;46158;52.850;6.970;2023-04-24T07:33:48;14.50;70.90
60313;DHT22;46158;52.850;6.970;2023-04-24T07:36:14;14.50;70.90
60313;DHT22;46158;52.850;6.970;2023-04-24T07:38:44;14.50;70.90
60313;DHT22;46158;52.850;6.970;2023-04-24T07:41:11;14.50;70.90
60313;DHT22;46158;52.850;6.970;2023-04-24T07:43:37;14.50;71.00
60313;DHT22;46158;52.850;6.970;2023-04-24T07:46:03;14.50;71.00
60313;DHT22;46158;52.850;6.970;2023-04-24T07:48:28;14.50;71.00
60313;DHT22;46158;52.850;6.970;2023-04-24T07:50:54;14.50;71.00
60313;DHT22;46158;52.850;6.970;2023-04-24T07:53:20;14.50;71.00
60313;DHT22;46158;52.850;6.970;2023-04-24T07:55:46;14.50;71.00
60313;DHT22;46158;52.850;6.970;2023-04-24T07:58:11;14.50;71.00
60313;DHT22;46158;52.850;6.970;2023-04-24T08:00:37;14.50;71.00
60313;DHT22;46158;52.850;6.970;2023-04-24T08:03:03;14.50;71.00
60313;DHT22;46158;52.850;6.970;2023-04-24T08:05:29;14.40;71.00
60313;DHT22;46158;52.850;6.970;2023-04-24T08:07:55;14.40;70.90
60313;DHT22;46158;52.850;6.970;2023-04-24T08:10:26;14.50;71.00
60313;DHT22;46158;52.850;6.970;2023-04-24T08:12:52;14.50;71.00
60313;DHT22;46158;52.850;6.970;2023-04-24T08:15:18;14.50;71.00
60313;DHT22;46158;52.850;6.970;2023-04-24T08:17:44;14.50;71.00
60313;DHT22;46158;52.850;6.970;2023-04-24T08:20:11;14.50;71.00
60313;DHT22;46158;52.850;6.970;2023-04-24T08:22:43;14.50;71.00
60313;DHT22;46158;52.850;6.970;2023-04-24T08:25:09;14.50;71.00
60313;DHT22;46158;52.850;6.970;2023-04-24T08:27:36;14.40;71.00
60313;DHT22;46158;52.850;6.970;2023-04-24T08:30:05;14.40;71.00
60313;DHT22;46158;52.850;6.970;2023-04-24T08:32:31;14.40;71.00
60313;DHT22;46158;52.850;6.970;2023-04-24T08:34:57;14.40;71.00
60313;DHT22;46158;52.850;6.970;2023-04-24T08:37:25;14.40;71.00
60313;DHT22;46158;52.850;6.970;2023-04-24T08:39:51;14.40;71.00
60313;DHT22;46158;52.850;6.970;2023-04-24T08:42:17;14.40;71.70
60313;DHT22;46158;52.850;6.970;2023-04-24T08:44:43;14.40;71.00
60313;DHT22;46158;52.850;6.970;2023-04-24T08:47:11;14.40;71.00
60313;DHT22;46158;52.850;6.970;2023-04-24T08:49:38;14.40;71.00
60313;DHT22;46158;52.850;6.970;2023-04-24T08:52:05;14.40;71.10
60313;DHT22;46158;52.850;6.970;2023-04-24T08:54:33;14.40;71.10
60313;DHT22;46158;52.850;6.970;2023-04-24T08:57:00;14.40;71.10
60313;DHT22;46158;52.850;6.970;2023-04-24T08:59:36;14.40;71.10
60313;DHT22;46158;52.850;6.970;2023-04-24T09:02:03;14.40;71.20
60313;DHT22;46158;52.850;6.970;2023-04-24T09:04:30;14.40;71.20
60313;DHT22;46158;52.850;6.970;2023-04-24T09:06:57;14.40;71.20
60313;DHT22;46158;52.850;6.970;2023-04-24T09:09:24;14.40;71.20
60313;DHT22;46158;52.850;6.970;2023-04-24T09:11:51;14.40;71.20
60313;DHT22;46158;52.850;6.970;2023-04-24T09:14:19;14.40;71.20
60313;DHT22;46158;52.850;6.970;2023-04-24T09:16:46;14.40;71.20
60313;DHT22;46158;52.850;6.970;2023-04-24T09:19:15;14.40;71.20
60313;DHT22;46158;52.850;6.970;2023-04-24T09:21:45;14.40;71.20
60313;DHT22;46158;52.850;6.970;2023-04-24T09:24:17;14.40;71.20
60313;DHT22;46158;52.850;6.970;2023-04-24T09:26:44;14.40;71.20
60313;DHT22;46158;52.850;6.970;2023-04-24T09:29:17;14.40;71.30
60313;DHT22;46158;52.850;6.970;2023-04-24T09:31:43;14.40;71.30
60313;DHT22;46158;52.850;6.970;2023-04-24T09:34:09;14.40;71.30
60313;DHT22;46158;52.850;6.970;2023-04-24T09:36:49;14.40;71.30
60313;DHT22;46158;52.850;6.970;2023-04-24T09:39:16;14.40;71.30
60313;DHT22;46158;52.850;6.970;2023-04-24T09:41:46;14.40;71.30
60313;DHT22;46158;52.850;6.970;2023-04-24T09:44:24;14.40;71.30
60313;DHT22;46158;52.850;6.970;2023-04-24T09:46:58;14.30;71.30
60313;DHT22;46158;52.850;6.970;2023-04-24T09:49:28;14.30;71.30
60313;DHT22;46158;52.850;6.970;2023-04-24T09:52:07;14.40;71.40
60313;DHT22;46158;52.850;6.970;2023-04-24T09:54:34;14.40;71.40
60313;DHT22;46158;52.850;6.970;2023-04-24T09:57:02;14.30;71.30
60313;DHT22;46158;52.850;6.970;2023-04-24T09:59:28;14.30;71.30
60313;DHT22;46158;52.850;6.970;2023-04-24T10:01:54;14.40;71.40
60313;DHT22;46158;52.850;6.970;2023-04-24T10:04:25;14.30;71.40
60313;DHT22;46158;52.850;6.970;2023-04-24T10:06:54;14.30;71.40
60313;DHT22;46158;52.850;6.970;2023-04-24T10:09:24;14.30;71.40
60313;DHT22;46158;52.850;6.970;2023-04-24T10:11:52;14.30;71.40
60313;DHT22;46158;52.850;6.970;2023-04-24T10:14:23;14.30;71.40
60313;DHT22;46158;52.850;6.970;2023-04-24T10:16:53;14.30;71.50
60313;DHT22;46158;52.850;6.970;2023-04-24T10:19:18;14.30;71.40
60313;DHT22;46158;52.850;6.970;2023-04-24T10:21:45;14.30;71.50
60313;DHT22;46158;52.850;6.970;2023-04-24T10:24:16;14.30;71.40
60313;DHT22;46158;52.850;6.970;2023-04-24T10:26:43;14.30;71.50
60313;DHT22;46158;52.850;6.970;2023-04-24T10:29:12;14.30;71.50
60313;DHT22;46158;52.850;6.970;2023-04-24T10:31:46;14.30;71.50
60313;DHT22;46158;52.850;6.970;2023-04-24T10:34:17;14.30;71.50
60313;DHT22;46158;52.850;6.970;2023-04-24T10:36:48;14.30;71.50
60313;DHT22;46158;52.850;6.970;2023-04-24T10:39:16;14.30;71.50
60313;DHT22;46158;52.850;6.970;2023-04-24T10:41:42;14.30;71.50
60313;DHT22;46158;52.850;6.970;2023-04-24T10:44:10;14.30;71.50
60313;DHT22;46158;52.850;6.970;2023-04-24T10:46:38;14.30;71.50
60313;DHT22;46158;52.850;6.970;2023-04-24T10:49:06;14.30;71.50
60313;DHT22;46158;52.850;6.970;2023-04-24T10:51:52;14.30;71.50
60313;DHT22;46158;52.850;6.970;2023-04-24T10:54:29;14.30;71.50
60313;DHT22;46158;52.850;6.970;2023-04-24T10:59:43;14.30;71.50
60313;DHT22;46158;52.850;6.970;2023-04-24T11:02:10;14.30;71.50
60313;DHT22;46158;52.850;6.970;2023-04-24T11:04:36;14.30;71.60
60313;DHT22;46158;52.850;6.970;2023-04-24T11:07:05;14.30;71.60
60313;DHT22;46158;52.850;6.970;2023-04-24T11:09:34;14.30;71.60
60313;DHT22;46158;52.850;6.970;2023-04-24T11:12:10;14.30;71.60
60313;DHT22;46158;52.850;6.970;2023-04-24T11:14:59;14.30;71.60
60313;DHT22;46158;52.850;6.970;2023-04-24T11:17:36;14.30;71.60
60313;DHT22;46158;52.850;6.970;2023-04-24T11:20:10;14.20;71.60
60313;DHT22;46158;52.850;6.970;2023-04-24T11:22:39;14.20;71.50
60313;DHT22;46158;52.850;6.970;2023-04-24T11:25:09;14.20;71.60
60313;DHT22;46158;52.850;6.970;2023-04-24T11:27:44;14.20;71.60
60313;DHT22;46158;52.850;6.970;2023-04-24T11:30:11;14.20;71.60
60313;DHT22;46158;52.850;6.970;2023-04-24T11:32:41;14.20;71.60
60313;DHT22;46158;52.850;6.970;2023-04-24T11:35:18;14.20;71.60
60313;DHT22;46158;52.850;6.970;2023-04-24T11:37:49;14.20;71.60
60313;DHT22;46158;52.850;6.970;2023-04-24T11:40:16;14.20;71.60
60313;DHT22;46158;52.850;6.970;2023-04-24T11:42:47;14.20;71.60
60313;DHT22;46158;52.850;6.970;2023-04-24T11:45:14;14.20;71.60
60313;DHT22;46158;52.850;6.970;2023-04-24T11:47:41;14.20;71.60
60313;DHT22;46158;52.850;6.970;2023-04-24T11:50:09;14.20;71.60
60313;DHT22;46158;52.850;6.970;2023-04-24T11:52:42;14.20;71.70
60313;DHT22;46158;52.850;6.970;2023-04-24T11:55:29;14.20;71.60
60313;DHT22;46158;52.850;6.970;2023-04-24T11:57:57;14.20;71.60
60313;DHT22;46158;52.850;6.970;2023-04-24T12:00:31;14.20;71.70
60313;DHT22;46158;52.850;6.970;2023-04-24T12:03:10;14.20;71.70
60313;DHT22;46158;52.850;6.970;2023-04-24T12:05:37;14.20;71.60
60313;DHT22;46158;52.850;6.970;2023-04-24T12:08:03;14.20;71.70
60313;DHT22;46158;52.850;6.970;2023-04-24T12:10:30;14.20;71.70
60313;DHT22;46158;52.850;6.970;2023-04-24T12:12:57;14.20;71.60
60313;DHT22;46158;52.850;6.970;2023-04-24T12:15:23;14.20;71.70
60313;DHT22;46158;52.850;6.970;2023-04-24T12:17:53;14.20;71.60
60313;DHT22;46158;52.850;6.970;2023-04-24T12:20:31;14.20;71.60
60313;DHT22;46158;52.850;6.970;2023-04-24T12:22:58;14.20;72.30
60313;DHT22;46158;52.850;6.970;2023-04-24T12:25:26;14.20;71.70
60313;DHT22;46158;52.850;6.970;2023-04-24T12:28:11;14.20;71.70
60313;DHT22;46158;52.850;6.970;2023-04-24T12:30:47;14.20;71.60
60313;DHT22;46158;52.850;6.970;2023-04-24T12:33:23;14.20;71.70
60313;DHT22;46158;52.850;6.970;2023-04-24T12:35:51;14.20;71.60
60313;DHT22;46158;52.850;6.970;2023-04-24T12:38:22;14.20;71.70
60313;DHT22;46158;52.850;6.970;2023-04-24T12:41:00;14.20;71.70
60313;DHT22;46158;52.850;6.970;2023-04-24T12:43:26;14.10;71.70
60313;DHT22;46158;52.850;6.970;2023-04-24T12:45:52;14.10;71.80
60313;DHT22;46158;52.850;6.970;2023-04-24T12:48:18;14.10;71.60
60313;DHT22;46158;52.850;6.970;2023-04-24T12:50:44;14.10;71.70
60313;DHT22;46158;52.850;6.970;2023-04-24T12:53:10;14.10;71.70
60313;DHT22;46158;52.850;6.970;2023-04-24T12:55:37;14.20;71.70
60313;DHT22;46158;52.850;6.970;2023-04-24T12:58:03;14.10;71.60
60313;DHT22;46158;52.850;6.970;2023-04-24T13:00:29;14.10;71.60
60313;DHT22;46158;52.850;6.970;2023-04-24T13:02:55;14.20;72.40
60313;DHT22;46158;52.850;6.970;2023-04-24T13:05:21;14.10;71.60
60313;DHT22;46158;52.850;6.970;2023-04-24T13:07:46;14.10;71.60
60313;DHT22;46158;52.850;6.970;2023-04-24T13:10:12;14.10;71.70
60313;DHT22;46158;52.850;6.970;2023-04-24T13:12:38;14.10;71.60
60313;DHT22;46158;52.850;6.970;2023-04-24T13:15:05;14.10;71.60
60313;DHT22;46158;52.850;6.970;2023-04-24T13:17:31;14.10;71.60
60313;DHT22;46158;52.850;6.970;2023-04-24T13:19:56;14.10;71.60
60313;DHT22;46158;52.850;6.970;2023-04-24T13:22:22;14.10;71.60
60313;DHT22;46158;52.850;6.970;2023-04-24T13:24:48;14.10;71.60
60313;DHT22;46158;52.850;6.970;2023-04-24T13:27:17;14.10;72.30
60313;DHT22;46158;52.850;6.970;2023-04-24T13:29:43;14.10;71.60
60313;DHT22;46158;52.850;6.970;2023-04-24T13:32:09;14.10;71.60
60313;DHT22;46158;52.850;6.970;2023-04-24T13:34:35;14.10;71.60
60313;DHT22;46158;52.850;6.970;2023-04-24T13:37:06;14.10;71.60
60313;DHT22;46158;52.850;6.970;2023-04-24T13:39:33;14.10;71.60
60313;DHT22;46158;52.850;6.970;2023-04-24T13:41:59;14.10;71.60
60313;DHT22;46158;52.850;6.970;2023-04-24T13:44:25;14.10;71.60
60313;DHT22;46158;52.850;6.970;2023-04-24T13:46:53;14.10;71.60
60313;DHT22;46158;52.850;6.970;2023-04-24T13:49:20;14.10;71.60
60313;DHT22;46158;52.850;6.970;2023-04-24T13:51:47;14.10;71.60
60313;DHT22;46158;52.850;6.970;2023-04-24T13:54:13;14.10;71.60
60313;DHT22;46158;52.850;6.970;2023-04-24T13:56:39;14.10;71.60
60313;DHT22;46158;52.850;6.970;2023-04-24T13:59:06;14.10;71.60
60313;DHT22;46158;52.850;6.970;2023-04-24T14:01:32;14.10;71.60
60313;DHT22;46158;52.850;6.970;2023-04-24T14:03:57;14.10;71.60
60313;DHT22;46158;52.850;6.970;2023-04-24T14:06:24;14.10;71.60
60313;DHT22;46158;52.850;6.970;2023-04-24T14:08:50;14.00;71.60
60313;DHT22;46158;52.850;6.970;2023-04-24T14:11:16;14.10;71.60
60313;DHT22;46158;52.850;6.970;2023-04-24T14:13:43;14.10;71.60
60313;DHT22;46158;52.850;6.970;2023-04-24T14:16:10;14.10;71.60
60313;DHT22;46158;52.850;6.970;2023-04-24T14:18:36;14.00;71.50
60313;DHT22;46158;52.850;6.970;2023-04-24T14:21:04;14.10;71.60
60313;DHT22;46158;52.850;6.970;2023-04-24T14:23:30;14.00;71.50
60313;DHT22;46158;52.850;6.970;2023-04-24T14:25:57;14.00;71.50
60313;DHT22;46158;52.850;6.970;2023-04-24T14:28:24;14.00;71.50
60313;DHT22;46158;52.850;6.970;2023-04-24T14:30:49;14.00;71.50
60313;DHT22;46158;52.850;6.970;2023-04-24T14:33:16;14.00;71.50
60313;DHT22;46158;52.850;6.970;2023-04-24T14:35:44;14.00;71.60
60313;DHT22;46158;52.850;6.970;2023-04-24T14:38:11;14.00;71.50
60313;DHT22;46158;52.850;6.970;2023-04-24T14:40:37;14.00;71.60
60313;DHT22;46158;52.850;6.970;2023-04-24T14:43:03;14.00;71.60
60313;DHT22;46158;52.850;6.970;2023-04-24T14:45:30;14.00;71.50
60313;DHT22;46158;52.850;6.970;2023-04-24T14:47:55;14.00;71.50
60313;DHT22;46158;52.850;6.970;2023-04-24T14:50:21;14.00;71.50
60313;DHT22;46158;52.850;6.970;2023-04-24T14:52:47;14.00;71.50
60313;DHT22;46158;52.850;6.970;2023-04-24T14:55:13;14.00;71.50
60313;DHT22;46158;52.850;6.970;2023-04-24T14:57:39;14.00;71.50
60313;DHT22;46158;52.850;6.970;2023-04-24T15:00:07;14.00;71.50
60313;DHT22;46158;52.850;6.970;2023-04-24T15:02:37;14.00;71.50
60313;DHT22;46158;52.850;6.970;2023-04-24T15:05:06;13.90;72.20
60313;DHT22;46158;52.850;6.970;2023-04-24T15:07:32;14.00;71.50
60313;DHT22;46158;52.850;6.970;2023-04-24T15:09:58;14.00;71.50
60313;DHT22;46158;52.850;6.970;2023-04-24T15:12:24;14.00;71.50
60313;DHT22;46158;52.850;6.970;2023-04-24T15:14:50;14.00;71.50
60313;DHT22;46158;52.850;6.970;2023-04-24T15:17:16;14.00;71.50
60313;DHT22;46158;52.850;6.970;2023-04-24T15:19:42;13.90;71.50
60313;DHT22;46158;52.850;6.970;2023-04-24T15:22:09;14.00;71.50
60313;DHT22;46158;52.850;6.970;2023-04-24T15:24:35;13.90;71.50
60313;DHT22;46158;52.850;6.970;2023-04-24T15:27:01;13.90;71.50
60313;DHT22;46158;52.850;6.970;2023-04-24T15:29:27;13.90;71.50
60313;DHT22;46158;52.850;6.970;2023-04-24T15:31:53;13.90;71.50